PHENX84 YLTV-YSCB
Flight info
| Callsign | PHENX84 |
|---|---|
| Flight time | 2h 52m |
| Altitude | 4000 |
| Route | YWSL DCT ES2SF DCT KIGAG DCT LSR DCT YGRL DCT YORB DCT YMCO DCT YMER DCT YMRY DCT CAPT |
| Aircraft | C172/L-SFG/C |
Departure
| Time | 2026-04-25 02:45 |
|---|---|
| Airport | Latrobe Valley Airport (YLTV) |
Arrival
| Time | 2026-04-25 05:38 |
|---|---|
| Airport | Canberra Airport (YSCB) |
| Time | Latitude | Longitude | Altitude | Speed | Heading |
|---|---|---|---|---|---|
| 2026-04-25 02:38 | -38.20991 | 146.47514 | 183 ft | 0 kts | 44° |
| 2026-04-25 02:40 | -38.20960 | 146.47550 | 180 ft | 10 kts | 42° |
| 2026-04-25 02:40 | -38.20926 | 146.47554 | 180 ft | 0 kts | 327° |
| 2026-04-25 02:41 | -38.20936 | 146.47546 | 181 ft | 4 kts | 168° |
| 2026-04-25 02:41 | -38.20964 | 146.47516 | 181 ft | 8 kts | 224° |
| 2026-04-25 02:41 | -38.21021 | 146.47448 | 181 ft | 10 kts | 222° |
| 2026-04-25 02:42 | -38.21010 | 146.47399 | 181 ft | 6 kts | 306° |
| 2026-04-25 02:42 | -38.21023 | 146.47405 | 181 ft | 4 kts | 116° |
| 2026-04-25 02:42 | -38.21066 | 146.47387 | 180 ft | 13 kts | 225° |
| 2026-04-25 02:42 | -38.21148 | 146.47282 | 180 ft | 21 kts | 224° |
| 2026-04-25 02:43 | -38.21229 | 146.47163 | 180 ft | 13 kts | 269° |
| 2026-04-25 02:43 | -38.21219 | 146.47063 | 180 ft | 10 kts | 278° |
| 2026-04-25 02:43 | -38.21190 | 146.47010 | 182 ft | 5 kts | 318° |
| 2026-04-25 02:43 | -38.21175 | 146.46999 | 183 ft | 1 kts | 7° |
| 2026-04-25 02:44 | -38.21149 | 146.47023 | 182 ft | 19 kts | 47° |
| 2026-04-25 02:44 | -38.20925 | 146.47310 | 182 ft | 69 kts | 46° |
| 2026-04-25 02:44 | -38.20528 | 146.47723 | 310 ft | 82 kts | 37° |
| 2026-04-25 02:44 | -38.20124 | 146.48244 | 520 ft | 86 kts | 56° |
| 2026-04-25 02:45 | -38.20050 | 146.49039 | 634 ft | 97 kts | 120° |
| 2026-04-25 02:45 | -38.20073 | 146.49752 | 994 ft | 80 kts | 57° |
| 2026-04-25 02:45 | -38.19939 | 146.50436 | 1203 ft | 82 kts | 73° |
| 2026-04-25 02:45 | -38.19777 | 146.51122 | 1394 ft | 83 kts | 77° |
| 2026-04-25 02:46 | -38.19617 | 146.51831 | 1540 ft | 83 kts | 74° |
| 2026-04-25 02:46 | -38.19458 | 146.52538 | 1696 ft | 83 kts | 72° |
| 2026-04-25 02:46 | -38.19297 | 146.53248 | 1868 ft | 83 kts | 72° |
| 2026-04-25 02:46 | -38.19134 | 146.53959 | 2046 ft | 84 kts | 72° |
| 2026-04-25 02:47 | -38.18966 | 146.54673 | 2187 ft | 84 kts | 70° |
| 2026-04-25 02:47 | -38.18805 | 146.55383 | 2338 ft | 88 kts | 71° |
| 2026-04-25 02:47 | -38.18616 | 146.56208 | 2326 ft | 106 kts | 71° |
| 2026-04-25 02:47 | -38.18393 | 146.57189 | 2235 ft | 123 kts | 72° |
| 2026-04-25 02:48 | -38.18147 | 146.58253 | 2125 ft | 125 kts | 73° |
| 2026-04-25 02:48 | -38.17900 | 146.59324 | 2000 ft | 127 kts | 73° |
| 2026-04-25 02:48 | -38.17653 | 146.60374 | 1954 ft | 120 kts | 72° |
| 2026-04-25 02:48 | -38.17420 | 146.61378 | 1951 ft | 117 kts | 72° |
| 2026-04-25 02:49 | -38.17189 | 146.62366 | 1953 ft | 116 kts | 71° |
| 2026-04-25 02:49 | -38.16963 | 146.63343 | 1948 ft | 114 kts | 72° |
| 2026-04-25 02:49 | -38.16737 | 146.64299 | 1957 ft | 113 kts | 71° |
| 2026-04-25 02:49 | -38.16513 | 146.65261 | 1946 ft | 113 kts | 71° |
| 2026-04-25 02:50 | -38.16294 | 146.66204 | 1949 ft | 109 kts | 72° |
| 2026-04-25 02:50 | -38.16082 | 146.67115 | 1950 ft | 106 kts | 71° |
| 2026-04-25 02:50 | -38.15873 | 146.67998 | 1952 ft | 103 kts | 72° |
| 2026-04-25 02:50 | -38.15667 | 146.68887 | 1961 ft | 107 kts | 72° |
| 2026-04-25 02:51 | -38.15452 | 146.69797 | 1956 ft | 106 kts | 72° |
| 2026-04-25 02:51 | -38.15245 | 146.70685 | 1945 ft | 102 kts | 68° |
| 2026-04-25 02:51 | -38.15047 | 146.71532 | 1951 ft | 100 kts | 71° |
| 2026-04-25 02:51 | -38.14854 | 146.72365 | 1949 ft | 96 kts | 71° |
| 2026-04-25 02:52 | -38.14660 | 146.73183 | 1954 ft | 98 kts | 70° |
| 2026-04-25 02:52 | -38.14459 | 146.74043 | 1963 ft | 108 kts | 72° |
| 2026-04-25 02:52 | -38.14248 | 146.74953 | 1956 ft | 106 kts | 68° |
| 2026-04-25 02:52 | -38.14033 | 146.75882 | 1960 ft | 111 kts | 69° |
| 2026-04-25 02:53 | -38.13816 | 146.76808 | 1957 ft | 109 kts | 70° |
| 2026-04-25 02:53 | -38.13597 | 146.77732 | 1957 ft | 106 kts | 69° |
| 2026-04-25 02:53 | -38.13389 | 146.78624 | 1961 ft | 108 kts | 69° |
| 2026-04-25 02:53 | -38.13168 | 146.79557 | 1961 ft | 110 kts | 69° |
| 2026-04-25 02:54 | -38.12953 | 146.80480 | 1952 ft | 111 kts | 68° |
| 2026-04-25 02:54 | -38.12736 | 146.81403 | 1951 ft | 109 kts | 71° |
| 2026-04-25 02:54 | -38.12522 | 146.82302 | 1949 ft | 106 kts | 72° |
| 2026-04-25 02:54 | -38.12313 | 146.83200 | 1947 ft | 105 kts | 69° |
| 2026-04-25 02:55 | -38.12104 | 146.84087 | 1948 ft | 107 kts | 68° |
| 2026-04-25 02:55 | -38.11889 | 146.85000 | 1949 ft | 109 kts | 72° |
| 2026-04-25 02:55 | -38.11670 | 146.85936 | 1954 ft | 111 kts | 72° |
| 2026-04-25 02:55 | -38.11447 | 146.86881 | 1956 ft | 112 kts | 71° |
| 2026-04-25 02:56 | -38.11225 | 146.87830 | 1959 ft | 112 kts | 72° |
| 2026-04-25 02:56 | -38.11001 | 146.88777 | 1957 ft | 111 kts | 71° |
| 2026-04-25 02:56 | -38.10780 | 146.89720 | 1960 ft | 112 kts | 71° |
| 2026-04-25 02:56 | -38.10555 | 146.90678 | 1955 ft | 115 kts | 72° |
| 2026-04-25 02:57 | -38.10326 | 146.91648 | 1958 ft | 115 kts | 72° |
| 2026-04-25 02:57 | -38.10099 | 146.92611 | 1948 ft | 112 kts | 72° |
| 2026-04-25 02:57 | -38.09880 | 146.93532 | 1947 ft | 108 kts | 72° |
| 2026-04-25 02:57 | -38.09664 | 146.94454 | 1948 ft | 109 kts | 71° |
| 2026-04-25 02:58 | -38.09443 | 146.95380 | 1954 ft | 110 kts | 72° |
| 2026-04-25 02:58 | -38.09326 | 146.96335 | 1954 ft | 112 kts | 100° |
| 2026-04-25 02:58 | -38.09693 | 146.97183 | 1959 ft | 110 kts | 137° |
| 2026-04-25 02:58 | -38.10243 | 146.97856 | 1960 ft | 110 kts | 136° |
| 2026-04-25 02:59 | -38.10788 | 146.98532 | 1958 ft | 110 kts | 137° |
| 2026-04-25 02:59 | -38.11329 | 146.99206 | 1961 ft | 109 kts | 137° |
| 2026-04-25 02:59 | -38.11874 | 146.99883 | 1960 ft | 110 kts | 137° |
| 2026-04-25 02:59 | -38.12420 | 147.00563 | 1961 ft | 110 kts | 136° |
| 2026-04-25 03:00 | -38.12967 | 147.01244 | 1958 ft | 110 kts | 137° |
| 2026-04-25 03:00 | -38.13515 | 147.01928 | 1959 ft | 110 kts | 136° |
| 2026-04-25 03:00 | -38.14060 | 147.02605 | 1960 ft | 112 kts | 136° |
| 2026-04-25 03:00 | -38.14613 | 147.03294 | 1962 ft | 111 kts | 137° |
| 2026-04-25 03:01 | -38.15164 | 147.03981 | 1952 ft | 109 kts | 136° |
| 2026-04-25 03:01 | -38.15697 | 147.04648 | 1952 ft | 107 kts | 136° |
| 2026-04-25 03:01 | -38.16123 | 147.05442 | 1956 ft | 111 kts | 120° |
| 2026-04-25 03:01 | -38.16519 | 147.06293 | 1957 ft | 111 kts | 121° |
| 2026-04-25 03:02 | -38.16914 | 147.07146 | 1961 ft | 113 kts | 121° |
| 2026-04-25 03:02 | -38.17314 | 147.08009 | 1960 ft | 114 kts | 121° |
| 2026-04-25 03:02 | -38.17719 | 147.08880 | 1958 ft | 114 kts | 121° |
| 2026-04-25 03:02 | -38.18122 | 147.09748 | 1957 ft | 113 kts | 121° |
| 2026-04-25 03:03 | -38.18518 | 147.10604 | 1952 ft | 111 kts | 121° |
| 2026-04-25 03:03 | -38.18908 | 147.11445 | 1946 ft | 110 kts | 120° |
| 2026-04-25 03:03 | -38.19294 | 147.12270 | 1943 ft | 106 kts | 120° |
| 2026-04-25 03:03 | -38.19665 | 147.13076 | 1946 ft | 106 kts | 121° |
| 2026-04-25 03:04 | -38.20041 | 147.13884 | 1955 ft | 108 kts | 121° |
| 2026-04-25 03:04 | -38.20424 | 147.14709 | 1956 ft | 109 kts | 121° |
| 2026-04-25 03:04 | -38.20816 | 147.15551 | 1959 ft | 113 kts | 121° |
| 2026-04-25 03:05 | -38.21473 | 147.16975 | 1954 ft | 111 kts | 121° |
| 2026-04-25 03:05 | -38.22003 | 147.18114 | 1955 ft | 113 kts | 122° |
| 2026-04-25 03:05 | -38.22263 | 147.18675 | 1949 ft | 109 kts | 121° |
| 2026-04-25 03:05 | -38.22647 | 147.19507 | 1954 ft | 111 kts | 121° |
| 2026-04-25 03:06 | -38.23045 | 147.20362 | 1959 ft | 114 kts | 121° |
| 2026-04-25 03:06 | -38.23446 | 147.21229 | 1958 ft | 113 kts | 121° |
| 2026-04-25 03:06 | -38.23845 | 147.22094 | 1956 ft | 113 kts | 121° |
| 2026-04-25 03:06 | -38.24243 | 147.22952 | 1957 ft | 112 kts | 121° |
| 2026-04-25 03:07 | -38.24639 | 147.23807 | 1956 ft | 112 kts | 121° |
| 2026-04-25 03:07 | -38.25033 | 147.24660 | 1958 ft | 112 kts | 121° |
| 2026-04-25 03:07 | -38.25430 | 147.25516 | 1958 ft | 112 kts | 121° |
| 2026-04-25 03:07 | -38.25826 | 147.26373 | 1958 ft | 112 kts | 121° |
| 2026-04-25 03:08 | -38.26222 | 147.27229 | 1956 ft | 112 kts | 121° |
| 2026-04-25 03:08 | -38.26549 | 147.28140 | 1955 ft | 116 kts | 96° |
| 2026-04-25 03:08 | -38.26375 | 147.29101 | 1954 ft | 112 kts | 57° |
| 2026-04-25 03:08 | -38.25857 | 147.29856 | 1959 ft | 114 kts | 45° |
| 2026-04-25 03:09 | -38.25312 | 147.30602 | 1958 ft | 116 kts | 45° |
| 2026-04-25 03:09 | -38.24767 | 147.31344 | 1960 ft | 115 kts | 45° |
| 2026-04-25 03:09 | -38.24226 | 147.32083 | 1951 ft | 113 kts | 45° |
| 2026-04-25 03:09 | -38.23700 | 147.32806 | 1948 ft | 110 kts | 45° |
| 2026-04-25 03:10 | -38.23173 | 147.33530 | 1951 ft | 113 kts | 45° |
| 2026-04-25 03:10 | -38.22638 | 147.34264 | 1951 ft | 113 kts | 45° |
| 2026-04-25 03:10 | -38.22105 | 147.34991 | 1948 ft | 113 kts | 45° |
| 2026-04-25 03:10 | -38.21572 | 147.35723 | 1943 ft | 112 kts | 45° |
| 2026-04-25 03:11 | -38.21043 | 147.36447 | 1950 ft | 112 kts | 46° |
| 2026-04-25 03:11 | -38.20508 | 147.37178 | 1955 ft | 114 kts | 45° |
| 2026-04-25 03:11 | -38.19971 | 147.37914 | 1952 ft | 113 kts | 45° |
| 2026-04-25 03:11 | -38.19437 | 147.38649 | 1958 ft | 112 kts | 46° |
| 2026-04-25 03:12 | -38.18906 | 147.39370 | 1954 ft | 112 kts | 46° |
| 2026-04-25 03:12 | -38.18381 | 147.40092 | 1956 ft | 111 kts | 46° |
| 2026-04-25 03:12 | -38.17854 | 147.40816 | 1961 ft | 111 kts | 46° |
| 2026-04-25 03:12 | -38.17325 | 147.41535 | 1945 ft | 111 kts | 45° |
| 2026-04-25 03:13 | -38.16805 | 147.42246 | 1946 ft | 110 kts | 45° |
| 2026-04-25 03:13 | -38.16288 | 147.42950 | 1944 ft | 108 kts | 45° |
| 2026-04-25 03:13 | -38.15772 | 147.43651 | 1946 ft | 108 kts | 46° |
| 2026-04-25 03:13 | -38.15258 | 147.44356 | 1955 ft | 111 kts | 45° |
| 2026-04-25 03:14 | -38.14731 | 147.45085 | 1960 ft | 113 kts | 45° |
| 2026-04-25 03:14 | -38.14181 | 147.45820 | 1960 ft | 115 kts | 45° |
| 2026-04-25 03:14 | -38.13639 | 147.46579 | 1967 ft | 116 kts | 46° |
| 2026-04-25 03:14 | -38.13087 | 147.47324 | 1963 ft | 116 kts | 46° |
| 2026-04-25 03:15 | -38.12543 | 147.48068 | 1961 ft | 114 kts | 45° |
| 2026-04-25 03:15 | -38.12004 | 147.48802 | 1960 ft | 113 kts | 45° |
| 2026-04-25 03:15 | -38.11468 | 147.49537 | 1961 ft | 114 kts | 46° |
| 2026-04-25 03:15 | -38.10926 | 147.50273 | 1964 ft | 115 kts | 45° |
| 2026-04-25 03:16 | -38.10378 | 147.51022 | 1963 ft | 117 kts | 47° |
| 2026-04-25 03:16 | -38.09819 | 147.51778 | 1970 ft | 118 kts | 47° |
| 2026-04-25 03:16 | -38.09255 | 147.52555 | 1963 ft | 120 kts | 45° |
| 2026-04-25 03:16 | -38.08683 | 147.53329 | 1959 ft | 120 kts | 46° |
| 2026-04-25 03:17 | -38.08113 | 147.54103 | 1957 ft | 120 kts | 45° |
| 2026-04-25 03:17 | -38.07546 | 147.54881 | 1958 ft | 120 kts | 45° |
| 2026-04-25 03:17 | -38.06977 | 147.55658 | 1958 ft | 120 kts | 46° |
| 2026-04-25 03:17 | -38.06409 | 147.56435 | 1952 ft | 119 kts | 46° |
| 2026-04-25 03:18 | -38.05850 | 147.57187 | 1952 ft | 116 kts | 46° |
| 2026-04-25 03:18 | -38.05306 | 147.57927 | 1949 ft | 114 kts | 46° |
| 2026-04-25 03:18 | -38.04821 | 147.58696 | 1949 ft | 113 kts | 58° |
| 2026-04-25 03:18 | -38.04405 | 147.59541 | 1955 ft | 114 kts | 56° |
| 2026-04-25 03:19 | -38.03977 | 147.60416 | 1958 ft | 119 kts | 58° |
| 2026-04-25 03:19 | -38.03545 | 147.61294 | 1953 ft | 116 kts | 56° |
| 2026-04-25 03:19 | -38.03117 | 147.62155 | 1952 ft | 115 kts | 56° |
| 2026-04-25 03:19 | -38.02688 | 147.63021 | 1949 ft | 116 kts | 57° |
| 2026-04-25 03:20 | -38.02263 | 147.63876 | 1946 ft | 114 kts | 56° |
| 2026-04-25 03:20 | -38.01839 | 147.64729 | 1953 ft | 115 kts | 57° |
| 2026-04-25 03:20 | -38.01409 | 147.65601 | 1958 ft | 118 kts | 57° |
| 2026-04-25 03:20 | -38.00970 | 147.66486 | 1954 ft | 119 kts | 57° |
| 2026-04-25 03:21 | -38.00534 | 147.67369 | 1962 ft | 119 kts | 58° |
| 2026-04-25 03:21 | -38.00092 | 147.68263 | 1963 ft | 120 kts | 57° |
| 2026-04-25 03:21 | -37.99649 | 147.69148 | 1959 ft | 118 kts | 57° |
| 2026-04-25 03:21 | -37.99213 | 147.70030 | 1955 ft | 119 kts | 57° |
| 2026-04-25 03:22 | -37.98776 | 147.70909 | 1954 ft | 118 kts | 57° |
| 2026-04-25 03:22 | -37.98347 | 147.71776 | 1950 ft | 115 kts | 57° |
| 2026-04-25 03:22 | -37.97926 | 147.72628 | 1948 ft | 114 kts | 57° |
| 2026-04-25 03:22 | -37.97503 | 147.73472 | 1948 ft | 113 kts | 57° |
| 2026-04-25 03:23 | -37.97086 | 147.74314 | 1948 ft | 113 kts | 57° |
| 2026-04-25 03:23 | -37.96663 | 147.75167 | 1960 ft | 117 kts | 56° |
| 2026-04-25 03:23 | -37.96226 | 147.76043 | 1956 ft | 117 kts | 56° |
| 2026-04-25 03:23 | -37.95797 | 147.76908 | 1952 ft | 115 kts | 56° |
| 2026-04-25 03:24 | -37.95371 | 147.77761 | 1950 ft | 114 kts | 57° |
| 2026-04-25 03:24 | -37.94950 | 147.78620 | 1954 ft | 115 kts | 57° |
| 2026-04-25 03:24 | -37.94514 | 147.79480 | 1959 ft | 117 kts | 57° |
| 2026-04-25 03:24 | -37.94073 | 147.80366 | 1964 ft | 120 kts | 57° |
| 2026-04-25 03:25 | -37.93626 | 147.81272 | 1963 ft | 122 kts | 57° |
| 2026-04-25 03:25 | -37.93169 | 147.82187 | 1957 ft | 122 kts | 57° |
| 2026-04-25 03:25 | -37.92721 | 147.83088 | 1952 ft | 120 kts | 57° |
| 2026-04-25 03:25 | -37.92281 | 147.83971 | 1947 ft | 118 kts | 57° |
| 2026-04-25 03:26 | -37.91848 | 147.84842 | 1950 ft | 117 kts | 57° |
| 2026-04-25 03:26 | -37.91410 | 147.85722 | 1951 ft | 119 kts | 56° |
| 2026-04-25 03:26 | -37.90966 | 147.86610 | 1953 ft | 119 kts | 57° |
| 2026-04-25 03:26 | -37.90525 | 147.87487 | 1956 ft | 121 kts | 57° |
| 2026-04-25 03:27 | -37.90075 | 147.88395 | 1945 ft | 119 kts | 56° |
| 2026-04-25 03:27 | -37.89642 | 147.89260 | 1946 ft | 117 kts | 56° |
| 2026-04-25 03:27 | -37.89204 | 147.90137 | 1948 ft | 115 kts | 56° |
| 2026-04-25 03:27 | -37.88779 | 147.90998 | 1956 ft | 117 kts | 56° |
| 2026-04-25 03:28 | -37.88336 | 147.91868 | 1947 ft | 120 kts | 56° |
| 2026-04-25 03:28 | -37.87899 | 147.92748 | 1952 ft | 117 kts | 56° |
| 2026-04-25 03:28 | -37.87463 | 147.93620 | 1954 ft | 118 kts | 57° |
| 2026-04-25 03:28 | -37.87019 | 147.94501 | 1960 ft | 120 kts | 54° |
| 2026-04-25 03:29 | -37.86572 | 147.95408 | 1960 ft | 123 kts | 56° |
| 2026-04-25 03:29 | -37.86114 | 147.96310 | 1959 ft | 121 kts | 54° |
| 2026-04-25 03:29 | -37.85662 | 147.97226 | 1943 ft | 123 kts | 56° |
| 2026-04-25 03:29 | -37.85215 | 147.98131 | 1946 ft | 120 kts | 57° |
| 2026-04-25 03:30 | -37.84765 | 147.98998 | 1953 ft | 117 kts | 55° |
| 2026-04-25 03:30 | -37.84344 | 147.99882 | 1950 ft | 117 kts | 60° |
| 2026-04-25 03:30 | -37.84183 | 148.00906 | 1950 ft | 120 kts | 85° |
| 2026-04-25 03:30 | -37.84092 | 148.01946 | 1948 ft | 119 kts | 84° |
| 2026-04-25 03:31 | -37.84010 | 148.02980 | 1951 ft | 119 kts | 83° |
| 2026-04-25 03:31 | -37.83922 | 148.04028 | 1948 ft | 120 kts | 83° |
| 2026-04-25 03:31 | -37.83837 | 148.05059 | 1943 ft | 117 kts | 84° |
| 2026-04-25 03:31 | -37.83752 | 148.06066 | 1942 ft | 114 kts | 83° |
| 2026-04-25 03:32 | -37.83667 | 148.07057 | 1968 ft | 116 kts | 83° |
| 2026-04-25 03:32 | -37.83582 | 148.08116 | 1954 ft | 122 kts | 84° |
| 2026-04-25 03:32 | -37.83493 | 148.09175 | 1963 ft | 122 kts | 83° |
| 2026-04-25 03:32 | -37.83404 | 148.10255 | 1966 ft | 124 kts | 82° |
| 2026-04-25 03:33 | -37.83311 | 148.11341 | 1950 ft | 123 kts | 82° |
| 2026-04-25 03:33 | -37.83222 | 148.12401 | 1945 ft | 119 kts | 83° |
| 2026-04-25 03:33 | -37.83133 | 148.13437 | 1965 ft | 120 kts | 83° |
| 2026-04-25 03:33 | -37.83043 | 148.14521 | 1954 ft | 127 kts | 83° |
| 2026-04-25 03:34 | -37.82953 | 148.15595 | 1946 ft | 120 kts | 83° |
| 2026-04-25 03:34 | -37.82865 | 148.16633 | 1944 ft | 118 kts | 83° |
| 2026-04-25 03:34 | -37.82778 | 148.17657 | 1944 ft | 117 kts | 83° |
| 2026-04-25 03:34 | -37.82691 | 148.18675 | 1952 ft | 116 kts | 83° |
| 2026-04-25 03:35 | -37.82600 | 148.19699 | 1962 ft | 120 kts | 84° |
| 2026-04-25 03:35 | -37.82517 | 148.20785 | 1963 ft | 127 kts | 85° |
| 2026-04-25 03:35 | -37.82424 | 148.21885 | 1949 ft | 124 kts | 83° |
| 2026-04-25 03:35 | -37.82330 | 148.22949 | 1944 ft | 120 kts | 83° |
| 2026-04-25 03:36 | -37.82241 | 148.23985 | 1945 ft | 118 kts | 83° |
| 2026-04-25 03:36 | -37.82156 | 148.24994 | 1946 ft | 116 kts | 83° |
| 2026-04-25 03:36 | -37.82069 | 148.26006 | 1948 ft | 116 kts | 83° |
| 2026-04-25 03:36 | -37.81983 | 148.27025 | 1949 ft | 117 kts | 84° |
| 2026-04-25 03:37 | -37.81896 | 148.28045 | 1948 ft | 117 kts | 83° |
| 2026-04-25 03:37 | -37.81808 | 148.29067 | 1947 ft | 117 kts | 83° |
| 2026-04-25 03:37 | -37.81721 | 148.30088 | 1948 ft | 117 kts | 82° |
| 2026-04-25 03:37 | -37.81633 | 148.31109 | 1947 ft | 117 kts | 83° |
| 2026-04-25 03:38 | -37.81546 | 148.32129 | 1946 ft | 116 kts | 83° |
| 2026-04-25 03:38 | -37.81459 | 148.33140 | 1944 ft | 115 kts | 83° |
| 2026-04-25 03:38 | -37.81373 | 148.34146 | 1943 ft | 115 kts | 83° |
| 2026-04-25 03:38 | -37.81286 | 148.35152 | 1944 ft | 115 kts | 83° |
| 2026-04-25 03:39 | -37.81199 | 148.36157 | 1944 ft | 115 kts | 83° |
| 2026-04-25 03:39 | -37.81113 | 148.37158 | 1950 ft | 115 kts | 83° |
| 2026-04-25 03:39 | -37.81026 | 148.38173 | 1950 ft | 117 kts | 83° |
| 2026-04-25 03:39 | -37.80938 | 148.39193 | 1953 ft | 117 kts | 83° |
| 2026-04-25 03:40 | -37.80850 | 148.40214 | 1950 ft | 116 kts | 83° |
| 2026-04-25 03:40 | -37.80761 | 148.41236 | 1953 ft | 117 kts | 83° |
| 2026-04-25 03:40 | -37.80673 | 148.42259 | 1952 ft | 117 kts | 83° |
| 2026-04-25 03:40 | -37.80584 | 148.43285 | 1952 ft | 117 kts | 83° |
| 2026-04-25 03:41 | -37.80496 | 148.44301 | 1946 ft | 116 kts | 83° |
| 2026-04-25 03:41 | -37.80407 | 148.45314 | 1946 ft | 116 kts | 83° |
| 2026-04-25 03:41 | -37.80320 | 148.46324 | 1945 ft | 116 kts | 83° |
| 2026-04-25 03:41 | -37.80234 | 148.47330 | 1944 ft | 115 kts | 83° |
| 2026-04-25 03:42 | -37.80144 | 148.48353 | 1959 ft | 120 kts | 83° |
| 2026-04-25 03:42 | -37.80050 | 148.49417 | 1962 ft | 124 kts | 83° |
| 2026-04-25 03:42 | -37.79949 | 148.50506 | 1956 ft | 124 kts | 83° |
| 2026-04-25 03:42 | -37.79864 | 148.51595 | 1950 ft | 124 kts | 84° |
| 2026-04-25 03:43 | -37.79770 | 148.52661 | 1946 ft | 121 kts | 83° |
| 2026-04-25 03:43 | -37.79674 | 148.53721 | 1949 ft | 123 kts | 83° |
| 2026-04-25 03:43 | -37.79580 | 148.54796 | 1953 ft | 123 kts | 83° |
| 2026-04-25 03:43 | -37.79485 | 148.55858 | 1944 ft | 119 kts | 83° |
| 2026-04-25 03:44 | -37.79391 | 148.56905 | 1958 ft | 123 kts | 84° |
| 2026-04-25 03:44 | -37.79301 | 148.57990 | 1950 ft | 123 kts | 83° |
| 2026-04-25 03:44 | -37.79206 | 148.59040 | 1949 ft | 120 kts | 83° |
| 2026-04-25 03:44 | -37.79113 | 148.60077 | 1954 ft | 118 kts | 83° |
| 2026-04-25 03:45 | -37.79011 | 148.61145 | 1961 ft | 125 kts | 78° |
| 2026-04-25 03:45 | -37.78819 | 148.62224 | 1966 ft | 126 kts | 78° |
| 2026-04-25 03:45 | -37.78644 | 148.63303 | 1955 ft | 124 kts | 77° |
| 2026-04-25 03:45 | -37.78467 | 148.64359 | 1952 ft | 122 kts | 78° |
| 2026-04-25 03:46 | -37.78292 | 148.65405 | 1957 ft | 122 kts | 78° |
| 2026-04-25 03:46 | -37.78118 | 148.66441 | 1956 ft | 121 kts | 77° |
| 2026-04-25 03:46 | -37.77945 | 148.67477 | 1947 ft | 119 kts | 78° |
| 2026-04-25 03:46 | -37.77772 | 148.68506 | 1955 ft | 119 kts | 76° |
| 2026-04-25 03:47 | -37.77595 | 148.69559 | 1965 ft | 125 kts | 78° |
| 2026-04-25 03:47 | -37.77415 | 148.70624 | 1943 ft | 124 kts | 77° |
| 2026-04-25 03:47 | -37.77238 | 148.71692 | 1955 ft | 125 kts | 78° |
| 2026-04-25 03:47 | -37.77060 | 148.72742 | 1953 ft | 121 kts | 78° |
| 2026-04-25 03:48 | -37.76889 | 148.73764 | 1948 ft | 117 kts | 78° |
| 2026-04-25 03:48 | -37.76720 | 148.74763 | 1950 ft | 116 kts | 78° |
| 2026-04-25 03:48 | -37.76554 | 148.75749 | 1948 ft | 114 kts | 78° |
| 2026-04-25 03:48 | -37.76389 | 148.76727 | 1951 ft | 114 kts | 78° |
| 2026-04-25 03:49 | -37.76224 | 148.77707 | 1951 ft | 114 kts | 78° |
| 2026-04-25 03:49 | -37.76059 | 148.78688 | 1950 ft | 114 kts | 78° |
| 2026-04-25 03:49 | -37.75894 | 148.79665 | 1952 ft | 114 kts | 78° |
| 2026-04-25 03:49 | -37.75727 | 148.80648 | 1951 ft | 114 kts | 78° |
| 2026-04-25 03:50 | -37.75562 | 148.81625 | 1952 ft | 113 kts | 78° |
| 2026-04-25 03:50 | -37.75398 | 148.82599 | 1952 ft | 114 kts | 78° |
| 2026-04-25 03:50 | -37.75233 | 148.83574 | 1951 ft | 113 kts | 78° |
| 2026-04-25 03:50 | -37.75068 | 148.84550 | 1953 ft | 114 kts | 78° |
| 2026-04-25 03:51 | -37.74902 | 148.85526 | 1949 ft | 114 kts | 78° |
| 2026-04-25 03:51 | -37.74737 | 148.86500 | 1952 ft | 113 kts | 78° |
| 2026-04-25 03:51 | -37.74572 | 148.87470 | 1950 ft | 113 kts | 78° |
| 2026-04-25 03:51 | -37.74408 | 148.88440 | 1950 ft | 113 kts | 78° |
| 2026-04-25 03:52 | -37.74247 | 148.89396 | 1953 ft | 113 kts | 78° |
| 2026-04-25 03:52 | -37.74082 | 148.90362 | 1952 ft | 113 kts | 78° |
| 2026-04-25 03:52 | -37.73917 | 148.91331 | 1953 ft | 113 kts | 78° |
| 2026-04-25 03:52 | -37.73752 | 148.92304 | 1953 ft | 113 kts | 78° |
| 2026-04-25 03:53 | -37.73586 | 148.93277 | 1953 ft | 113 kts | 78° |
| 2026-04-25 03:53 | -37.73421 | 148.94249 | 1953 ft | 113 kts | 78° |
| 2026-04-25 03:53 | -37.73255 | 148.95226 | 1953 ft | 115 kts | 78° |
| 2026-04-25 03:53 | -37.73088 | 148.96204 | 1952 ft | 114 kts | 78° |
| 2026-04-25 03:54 | -37.72921 | 148.97181 | 1954 ft | 114 kts | 78° |
| 2026-04-25 03:54 | -37.72755 | 148.98158 | 1951 ft | 113 kts | 78° |
| 2026-04-25 03:54 | -37.72590 | 148.99128 | 1952 ft | 113 kts | 78° |
| 2026-04-25 03:54 | -37.72424 | 149.00098 | 1952 ft | 113 kts | 78° |
| 2026-04-25 03:55 | -37.72258 | 149.01072 | 1952 ft | 114 kts | 78° |
| 2026-04-25 03:55 | -37.72147 | 149.01717 | 1951 ft | 114 kts | 78° |
| 2026-04-25 03:55 | -37.71926 | 149.03018 | 1951 ft | 113 kts | 78° |
| 2026-04-25 03:55 | -37.71815 | 149.03662 | 1956 ft | 113 kts | 78° |
| 2026-04-25 03:56 | -37.71593 | 149.04959 | 1951 ft | 113 kts | 78° |
| 2026-04-25 03:56 | -37.71482 | 149.05602 | 1954 ft | 114 kts | 78° |
| 2026-04-25 03:56 | -37.71314 | 149.06583 | 1959 ft | 115 kts | 78° |
| 2026-04-25 03:56 | -37.71145 | 149.07581 | 1957 ft | 116 kts | 78° |
| 2026-04-25 03:57 | -37.70972 | 149.08583 | 1965 ft | 117 kts | 78° |
| 2026-04-25 03:57 | -37.70800 | 149.09587 | 1964 ft | 118 kts | 77° |
| 2026-04-25 03:57 | -37.70627 | 149.10595 | 1961 ft | 118 kts | 77° |
| 2026-04-25 03:57 | -37.70454 | 149.11601 | 1959 ft | 117 kts | 77° |
| 2026-04-25 03:58 | -37.70283 | 149.12596 | 1956 ft | 115 kts | 78° |
| 2026-04-25 03:58 | -37.70114 | 149.13582 | 1958 ft | 115 kts | 78° |
| 2026-04-25 03:58 | -37.69944 | 149.14566 | 1958 ft | 114 kts | 78° |
| 2026-04-25 03:58 | -37.69775 | 149.15553 | 1963 ft | 117 kts | 77° |
| 2026-04-25 03:59 | -37.69602 | 149.16567 | 1963 ft | 118 kts | 78° |
| 2026-04-25 03:59 | -37.69428 | 149.17565 | 1962 ft | 115 kts | 79° |
| 2026-04-25 03:59 | -37.69259 | 149.18542 | 1959 ft | 114 kts | 79° |
| 2026-04-25 03:59 | -37.69092 | 149.19514 | 1957 ft | 113 kts | 79° |
| 2026-04-25 04:00 | -37.68925 | 149.20477 | 1954 ft | 112 kts | 79° |
| 2026-04-25 04:00 | -37.68759 | 149.21442 | 1952 ft | 112 kts | 79° |
| 2026-04-25 04:00 | -37.68594 | 149.22405 | 1952 ft | 112 kts | 79° |
| 2026-04-25 04:00 | -37.68426 | 149.23368 | 1952 ft | 112 kts | 79° |
| 2026-04-25 04:01 | -37.68260 | 149.24331 | 1952 ft | 112 kts | 79° |
| 2026-04-25 04:01 | -37.68093 | 149.25289 | 1954 ft | 112 kts | 79° |
| 2026-04-25 04:01 | -37.67929 | 149.26246 | 1954 ft | 113 kts | 79° |
| 2026-04-25 04:01 | -37.67761 | 149.27213 | 1952 ft | 113 kts | 79° |
| 2026-04-25 04:02 | -37.67592 | 149.28187 | 1951 ft | 112 kts | 79° |
| 2026-04-25 04:02 | -37.67428 | 149.29133 | 1951 ft | 112 kts | 79° |
| 2026-04-25 04:02 | -37.67259 | 149.30107 | 1950 ft | 112 kts | 79° |
| 2026-04-25 04:02 | -37.67094 | 149.31054 | 1951 ft | 112 kts | 79° |
| 2026-04-25 04:03 | -37.66926 | 149.32026 | 1950 ft | 112 kts | 79° |
| 2026-04-25 04:03 | -37.66759 | 149.32985 | 1951 ft | 112 kts | 79° |
| 2026-04-25 04:03 | -37.66595 | 149.33934 | 1965 ft | 111 kts | 79° |
| 2026-04-25 04:03 | -37.66432 | 149.34865 | 2052 ft | 106 kts | 79° |
| 2026-04-25 04:04 | -37.66275 | 149.35768 | 2083 ft | 107 kts | 79° |
| 2026-04-25 04:04 | -37.66115 | 149.36686 | 2115 ft | 107 kts | 78° |
| 2026-04-25 04:04 | -37.65955 | 149.37602 | 2146 ft | 107 kts | 79° |
| 2026-04-25 04:04 | -37.65796 | 149.38513 | 2213 ft | 104 kts | 78° |
| 2026-04-25 04:05 | -37.65641 | 149.39400 | 2266 ft | 104 kts | 78° |
| 2026-04-25 04:05 | -37.65486 | 149.40291 | 2315 ft | 104 kts | 78° |
| 2026-04-25 04:05 | -37.65330 | 149.41185 | 2368 ft | 104 kts | 78° |
| 2026-04-25 04:05 | -37.65173 | 149.42080 | 2420 ft | 105 kts | 78° |
| 2026-04-25 04:06 | -37.65015 | 149.42983 | 2480 ft | 106 kts | 77° |
| 2026-04-25 04:06 | -37.64856 | 149.43897 | 2520 ft | 108 kts | 77° |
| 2026-04-25 04:06 | -37.64696 | 149.44812 | 2585 ft | 107 kts | 77° |
| 2026-04-25 04:06 | -37.64536 | 149.45727 | 2635 ft | 106 kts | 78° |
| 2026-04-25 04:07 | -37.64376 | 149.46639 | 2661 ft | 107 kts | 77° |
| 2026-04-25 04:07 | -37.64215 | 149.47565 | 2710 ft | 108 kts | 76° |
| 2026-04-25 04:07 | -37.64051 | 149.48497 | 2763 ft | 108 kts | 77° |
| 2026-04-25 04:07 | -37.63889 | 149.49427 | 2824 ft | 109 kts | 76° |
| 2026-04-25 04:08 | -37.63724 | 149.50364 | 2908 ft | 109 kts | 77° |
| 2026-04-25 04:08 | -37.63561 | 149.51292 | 3012 ft | 109 kts | 77° |
| 2026-04-25 04:08 | -37.63396 | 149.52238 | 3017 ft | 110 kts | 76° |
| 2026-04-25 04:08 | -37.63228 | 149.53189 | 3058 ft | 112 kts | 77° |
| 2026-04-25 04:09 | -37.63064 | 149.54139 | 3125 ft | 110 kts | 76° |
| 2026-04-25 04:09 | -37.62892 | 149.55094 | 3156 ft | 111 kts | 76° |
| 2026-04-25 04:09 | -37.62727 | 149.56038 | 3204 ft | 110 kts | 76° |
| 2026-04-25 04:09 | -37.62559 | 149.56993 | 3224 ft | 112 kts | 76° |
| 2026-04-25 04:10 | -37.62390 | 149.57950 | 3262 ft | 113 kts | 77° |
| 2026-04-25 04:10 | -37.62223 | 149.58907 | 3321 ft | 112 kts | 76° |
| 2026-04-25 04:10 | -37.62054 | 149.59862 | 3361 ft | 111 kts | 76° |
| 2026-04-25 04:10 | -37.61887 | 149.60817 | 3397 ft | 111 kts | 77° |
| 2026-04-25 04:11 | -37.61553 | 149.62711 | 3426 ft | 111 kts | 77° |
| 2026-04-25 04:11 | -37.61387 | 149.63655 | 3477 ft | 111 kts | 77° |
| 2026-04-25 04:11 | -37.61218 | 149.64606 | 3512 ft | 110 kts | 77° |
| 2026-04-25 04:12 | -37.61049 | 149.65555 | 3535 ft | 112 kts | 78° |
| 2026-04-25 04:12 | -37.60880 | 149.66512 | 3573 ft | 112 kts | 76° |
| 2026-04-25 04:12 | -37.60712 | 149.67472 | 3633 ft | 112 kts | 77° |
| 2026-04-25 04:12 | -37.60543 | 149.68418 | 3651 ft | 112 kts | 77° |
| 2026-04-25 04:13 | -37.60373 | 149.69375 | 3660 ft | 113 kts | 77° |
| 2026-04-25 04:13 | -37.60203 | 149.70338 | 3689 ft | 112 kts | 77° |
| 2026-04-25 04:13 | -37.60029 | 149.71295 | 3745 ft | 112 kts | 73° |
| 2026-04-25 04:13 | -37.59573 | 149.72062 | 3820 ft | 109 kts | 32° |
| 2026-04-25 04:14 | -37.58876 | 149.72355 | 3917 ft | 104 kts | 7° |
| 2026-04-25 04:14 | -37.58171 | 149.72545 | 3946 ft | 105 kts | 8° |
| 2026-04-25 04:14 | -37.57449 | 149.72734 | 3953 ft | 107 kts | 8° |
| 2026-04-25 04:14 | -37.56710 | 149.72932 | 3957 ft | 110 kts | 8° |
| 2026-04-25 04:15 | -37.55947 | 149.73127 | 3962 ft | 114 kts | 8° |
| 2026-04-25 04:15 | -37.55172 | 149.73340 | 3960 ft | 114 kts | 9° |
| 2026-04-25 04:15 | -37.54384 | 149.73543 | 3956 ft | 117 kts | 8° |
| 2026-04-25 04:15 | -37.53605 | 149.73750 | 3946 ft | 112 kts | 8° |
| 2026-04-25 04:16 | -37.52832 | 149.73953 | 3941 ft | 114 kts | 8° |
| 2026-04-25 04:16 | -37.52067 | 149.74155 | 3944 ft | 112 kts | 8° |
| 2026-04-25 04:16 | -37.51311 | 149.74354 | 3944 ft | 110 kts | 8° |
| 2026-04-25 04:16 | -37.50562 | 149.74550 | 3948 ft | 111 kts | 7° |
| 2026-04-25 04:17 | -37.49807 | 149.74750 | 3950 ft | 111 kts | 8° |
| 2026-04-25 04:17 | -37.49052 | 149.74949 | 3946 ft | 111 kts | 8° |
| 2026-04-25 04:17 | -37.48295 | 149.75147 | 3946 ft | 111 kts | 8° |
| 2026-04-25 04:17 | -37.47542 | 149.75346 | 3943 ft | 110 kts | 8° |
| 2026-04-25 04:18 | -37.46798 | 149.75542 | 3942 ft | 109 kts | 8° |
| 2026-04-25 04:18 | -37.46048 | 149.75739 | 3944 ft | 111 kts | 8° |
| 2026-04-25 04:18 | -37.45293 | 149.75940 | 3944 ft | 110 kts | 8° |
| 2026-04-25 04:18 | -37.44541 | 149.76132 | 3941 ft | 110 kts | 11° |
| 2026-04-25 04:19 | -37.43783 | 149.76333 | 3941 ft | 113 kts | 10° |
| 2026-04-25 04:19 | -37.43017 | 149.76535 | 3945 ft | 112 kts | 10° |
| 2026-04-25 04:19 | -37.42259 | 149.76734 | 3943 ft | 111 kts | 9° |
| 2026-04-25 04:19 | -37.41504 | 149.76933 | 3939 ft | 111 kts | 9° |
| 2026-04-25 04:20 | -37.40752 | 149.77130 | 3948 ft | 111 kts | 9° |
| 2026-04-25 04:20 | -37.39994 | 149.77329 | 3942 ft | 111 kts | 9° |
| 2026-04-25 04:20 | -37.39237 | 149.77528 | 3944 ft | 111 kts | 10° |
| 2026-04-25 04:20 | -37.38480 | 149.77727 | 3941 ft | 111 kts | 10° |
| 2026-04-25 04:21 | -37.37725 | 149.77925 | 3939 ft | 111 kts | 9° |
| 2026-04-25 04:21 | -37.36963 | 149.78125 | 3944 ft | 113 kts | 10° |
| 2026-04-25 04:21 | -37.36205 | 149.78324 | 3941 ft | 112 kts | 11° |
| 2026-04-25 04:21 | -37.35448 | 149.78523 | 3938 ft | 110 kts | 10° |
| 2026-04-25 04:22 | -37.34701 | 149.78718 | 3934 ft | 109 kts | 9° |
| 2026-04-25 04:22 | -37.33958 | 149.78913 | 3939 ft | 110 kts | 10° |
| 2026-04-25 04:22 | -37.33203 | 149.79111 | 3946 ft | 111 kts | 10° |
| 2026-04-25 04:22 | -37.32442 | 149.79315 | 3943 ft | 112 kts | 9° |
| 2026-04-25 04:23 | -37.31673 | 149.79514 | 3945 ft | 113 kts | 9° |
| 2026-04-25 04:23 | -37.30910 | 149.79709 | 3941 ft | 111 kts | 10° |
| 2026-04-25 04:23 | -37.30160 | 149.79909 | 3942 ft | 110 kts | 10° |
| 2026-04-25 04:23 | -37.29402 | 149.80107 | 3942 ft | 111 kts | 10° |
| 2026-04-25 04:24 | -37.28648 | 149.80304 | 3940 ft | 110 kts | 10° |
| 2026-04-25 04:24 | -37.27893 | 149.80501 | 3946 ft | 112 kts | 9° |
| 2026-04-25 04:24 | -37.27133 | 149.80699 | 3938 ft | 111 kts | 9° |
| 2026-04-25 04:24 | -37.26374 | 149.80899 | 3946 ft | 114 kts | 10° |
| 2026-04-25 04:25 | -37.25607 | 149.81104 | 3941 ft | 112 kts | 9° |
| 2026-04-25 04:25 | -37.24846 | 149.81299 | 3938 ft | 111 kts | 10° |
| 2026-04-25 04:25 | -37.24094 | 149.81495 | 3941 ft | 110 kts | 10° |
| 2026-04-25 04:25 | -37.23344 | 149.81691 | 3943 ft | 110 kts | 9° |
| 2026-04-25 04:26 | -37.22576 | 149.81889 | 3940 ft | 113 kts | 10° |
| 2026-04-25 04:26 | -37.21809 | 149.82095 | 3942 ft | 112 kts | 10° |
| 2026-04-25 04:26 | -37.21031 | 149.82297 | 3947 ft | 116 kts | 10° |
| 2026-04-25 04:26 | -37.20254 | 149.82500 | 3942 ft | 113 kts | 9° |
| 2026-04-25 04:27 | -37.19489 | 149.82699 | 3935 ft | 112 kts | 10° |
| 2026-04-25 04:27 | -37.18721 | 149.82894 | 3940 ft | 113 kts | 10° |
| 2026-04-25 04:27 | -37.17954 | 149.83101 | 3936 ft | 112 kts | 9° |
| 2026-04-25 04:27 | -37.17191 | 149.83298 | 3943 ft | 114 kts | 10° |
| 2026-04-25 04:28 | -37.16419 | 149.83501 | 3936 ft | 113 kts | 9° |
| 2026-04-25 04:28 | -37.15658 | 149.83703 | 3945 ft | 114 kts | 9° |
| 2026-04-25 04:28 | -37.14867 | 149.83904 | 3938 ft | 114 kts | 11° |
| 2026-04-25 04:28 | -37.14106 | 149.84103 | 3942 ft | 112 kts | 11° |
| 2026-04-25 04:29 | -37.13345 | 149.84300 | 3946 ft | 111 kts | 10° |
| 2026-04-25 04:29 | -37.12586 | 149.84499 | 3936 ft | 111 kts | 10° |
| 2026-04-25 04:29 | -37.11840 | 149.84694 | 3938 ft | 109 kts | 9° |
| 2026-04-25 04:29 | -37.11091 | 149.84890 | 3937 ft | 110 kts | 10° |
| 2026-04-25 04:30 | -37.10328 | 149.85085 | 3943 ft | 115 kts | 9° |
| 2026-04-25 04:30 | -37.09540 | 149.85294 | 3943 ft | 116 kts | 9° |
| 2026-04-25 04:30 | -37.08759 | 149.85499 | 3938 ft | 114 kts | 10° |
| 2026-04-25 04:30 | -37.07989 | 149.85698 | 3934 ft | 112 kts | 10° |
| 2026-04-25 04:31 | -37.07226 | 149.85896 | 3943 ft | 113 kts | 10° |
| 2026-04-25 04:31 | -37.06459 | 149.86094 | 3936 ft | 112 kts | 9° |
| 2026-04-25 04:31 | -37.05699 | 149.86294 | 3934 ft | 112 kts | 8° |
| 2026-04-25 04:31 | -37.04938 | 149.86490 | 3935 ft | 112 kts | 9° |
| 2026-04-25 04:32 | -37.04177 | 149.86689 | 3937 ft | 112 kts | 8° |
| 2026-04-25 04:32 | -37.03407 | 149.86889 | 3939 ft | 114 kts | 10° |
| 2026-04-25 04:32 | -37.02639 | 149.87088 | 3938 ft | 112 kts | 9° |
| 2026-04-25 04:32 | -37.01881 | 149.87285 | 3935 ft | 111 kts | 9° |
| 2026-04-25 04:33 | -37.01128 | 149.87484 | 3932 ft | 111 kts | 8° |
| 2026-04-25 04:33 | -37.00369 | 149.87677 | 3940 ft | 112 kts | 10° |
| 2026-04-25 04:33 | -36.99605 | 149.87873 | 3944 ft | 113 kts | 9° |
| 2026-04-25 04:33 | -36.98840 | 149.88076 | 3937 ft | 111 kts | 9° |
| 2026-04-25 04:34 | -36.98091 | 149.88271 | 3941 ft | 109 kts | 9° |
| 2026-04-25 04:34 | -36.97324 | 149.88470 | 3946 ft | 115 kts | 9° |
| 2026-04-25 04:34 | -36.96541 | 149.88673 | 3946 ft | 115 kts | 7° |
| 2026-04-25 04:34 | -36.95763 | 149.88877 | 3943 ft | 113 kts | 9° |
| 2026-04-25 04:35 | -36.95002 | 149.89074 | 3940 ft | 111 kts | 10° |
| 2026-04-25 04:35 | -36.94249 | 149.89270 | 3937 ft | 110 kts | 7° |
| 2026-04-25 04:35 | -36.93551 | 149.89442 | 3942 ft | 114 kts | 8° |
| 2026-04-25 04:35 | -36.92772 | 149.89658 | 3945 ft | 115 kts | 10° |
| 2026-04-25 04:36 | -36.91983 | 149.89856 | 3947 ft | 117 kts | 10° |
| 2026-04-25 04:36 | -36.91190 | 149.90063 | 3948 ft | 119 kts | 9° |
| 2026-04-25 04:36 | -36.90366 | 149.90271 | 3945 ft | 121 kts | 9° |
| 2026-04-25 04:36 | -36.89553 | 149.90470 | 3938 ft | 117 kts | 8° |
| 2026-04-25 04:37 | -36.88750 | 149.90665 | 3940 ft | 118 kts | 7° |
| 2026-04-25 04:37 | -36.87935 | 149.90863 | 3939 ft | 119 kts | 8° |
| 2026-04-25 04:37 | -36.87153 | 149.90781 | 3922 ft | 108 kts | 334° |
| 2026-04-25 04:37 | -36.86462 | 149.90454 | 3978 ft | 105 kts | 339° |
| 2026-04-25 04:38 | -36.85803 | 149.90195 | 4116 ft | 96 kts | 338° |
| 2026-04-25 04:38 | -36.85166 | 149.89952 | 4178 ft | 96 kts | 339° |
| 2026-04-25 04:38 | -36.84528 | 149.89715 | 4229 ft | 95 kts | 341° |
| 2026-04-25 04:38 | -36.83891 | 149.89481 | 4275 ft | 95 kts | 341° |
| 2026-04-25 04:39 | -36.83256 | 149.89244 | 4305 ft | 95 kts | 339° |
| 2026-04-25 04:39 | -36.82621 | 149.89011 | 4319 ft | 96 kts | 341° |
| 2026-04-25 04:39 | -36.81983 | 149.88780 | 4355 ft | 96 kts | 339° |
| 2026-04-25 04:39 | -36.81341 | 149.88541 | 4408 ft | 96 kts | 341° |
| 2026-04-25 04:40 | -36.80694 | 149.88304 | 4469 ft | 97 kts | 340° |
| 2026-04-25 04:40 | -36.80050 | 149.88068 | 4522 ft | 97 kts | 341° |
| 2026-04-25 04:40 | -36.79404 | 149.87832 | 4561 ft | 97 kts | 342° |
| 2026-04-25 04:40 | -36.78757 | 149.87595 | 4596 ft | 97 kts | 341° |
| 2026-04-25 04:41 | -36.78120 | 149.87361 | 4638 ft | 97 kts | 341° |
| 2026-04-25 04:41 | -36.77468 | 149.87122 | 4688 ft | 96 kts | 340° |
| 2026-04-25 04:41 | -36.76833 | 149.86888 | 4725 ft | 96 kts | 342° |
| 2026-04-25 04:41 | -36.76186 | 149.86652 | 4767 ft | 97 kts | 341° |
| 2026-04-25 04:42 | -36.75537 | 149.86416 | 4813 ft | 97 kts | 341° |
| 2026-04-25 04:42 | -36.74891 | 149.86179 | 4856 ft | 97 kts | 340° |
| 2026-04-25 04:42 | -36.74245 | 149.85943 | 4897 ft | 97 kts | 340° |
| 2026-04-25 04:42 | -36.73596 | 149.85706 | 4932 ft | 98 kts | 340° |
| 2026-04-25 04:43 | -36.72916 | 149.85458 | 4947 ft | 103 kts | 341° |
| 2026-04-25 04:43 | -36.72219 | 149.85205 | 4939 ft | 105 kts | 340° |
| 2026-04-25 04:43 | -36.71517 | 149.84949 | 4941 ft | 106 kts | 340° |
| 2026-04-25 04:43 | -36.70809 | 149.84690 | 4947 ft | 107 kts | 341° |
| 2026-04-25 04:44 | -36.70088 | 149.84427 | 4938 ft | 107 kts | 340° |
| 2026-04-25 04:44 | -36.69376 | 149.84165 | 4940 ft | 106 kts | 341° |
| 2026-04-25 04:44 | -36.68665 | 149.83906 | 4938 ft | 107 kts | 341° |
| 2026-04-25 04:44 | -36.67946 | 149.83645 | 4942 ft | 109 kts | 341° |
| 2026-04-25 04:45 | -36.67215 | 149.83378 | 4943 ft | 109 kts | 341° |
| 2026-04-25 04:45 | -36.66491 | 149.83116 | 4945 ft | 108 kts | 340° |
| 2026-04-25 04:45 | -36.65770 | 149.82851 | 4943 ft | 108 kts | 341° |
| 2026-04-25 04:45 | -36.65295 | 149.82675 | 4935 ft | 107 kts | 341° |
| 2026-04-25 04:46 | -36.64581 | 149.82417 | 4940 ft | 107 kts | 341° |
| 2026-04-25 04:46 | -36.63867 | 149.82156 | 4939 ft | 107 kts | 340° |
| 2026-04-25 04:46 | -36.63161 | 149.81898 | 4940 ft | 106 kts | 341° |
| 2026-04-25 04:46 | -36.62449 | 149.81638 | 4938 ft | 107 kts | 341° |
| 2026-04-25 04:47 | -36.61734 | 149.81378 | 4932 ft | 106 kts | 341° |
| 2026-04-25 04:47 | -36.61027 | 149.81120 | 4932 ft | 106 kts | 341° |
| 2026-04-25 04:47 | -36.60318 | 149.80862 | 4935 ft | 106 kts | 340° |
| 2026-04-25 04:47 | -36.59607 | 149.80602 | 4933 ft | 107 kts | 341° |
| 2026-04-25 04:48 | -36.58894 | 149.80342 | 4933 ft | 107 kts | 340° |
| 2026-04-25 04:48 | -36.58180 | 149.80085 | 4933 ft | 106 kts | 341° |
| 2026-04-25 04:48 | -36.57471 | 149.79825 | 4931 ft | 106 kts | 341° |
| 2026-04-25 04:48 | -36.56766 | 149.79568 | 4933 ft | 105 kts | 341° |
| 2026-04-25 04:49 | -36.56059 | 149.79309 | 4936 ft | 107 kts | 341° |
| 2026-04-25 04:49 | -36.55346 | 149.79052 | 4927 ft | 105 kts | 340° |
| 2026-04-25 04:49 | -36.54654 | 149.78799 | 4936 ft | 104 kts | 341° |
| 2026-04-25 04:49 | -36.53962 | 149.78548 | 4931 ft | 105 kts | 341° |
| 2026-04-25 04:50 | -36.53257 | 149.78291 | 4933 ft | 106 kts | 340° |
| 2026-04-25 04:50 | -36.52549 | 149.78034 | 4937 ft | 107 kts | 341° |
| 2026-04-25 04:50 | -36.51840 | 149.77777 | 4928 ft | 104 kts | 340° |
| 2026-04-25 04:50 | -36.51151 | 149.77526 | 4927 ft | 102 kts | 340° |
| 2026-04-25 04:51 | -36.50473 | 149.77280 | 4929 ft | 102 kts | 342° |
| 2026-04-25 04:51 | -36.49789 | 149.77030 | 4939 ft | 103 kts | 342° |
| 2026-04-25 04:51 | -36.49092 | 149.76777 | 4938 ft | 105 kts | 341° |
| 2026-04-25 04:51 | -36.48387 | 149.76521 | 4942 ft | 106 kts | 340° |
| 2026-04-25 04:52 | -36.47681 | 149.76265 | 4941 ft | 106 kts | 341° |
| 2026-04-25 04:52 | -36.46976 | 149.76010 | 4942 ft | 106 kts | 340° |
| 2026-04-25 04:52 | -36.46271 | 149.75754 | 4945 ft | 106 kts | 340° |
| 2026-04-25 04:52 | -36.45557 | 149.75495 | 4943 ft | 107 kts | 341° |
| 2026-04-25 04:53 | -36.44839 | 149.75234 | 4945 ft | 107 kts | 341° |
| 2026-04-25 04:53 | -36.44119 | 149.74974 | 4940 ft | 107 kts | 341° |
| 2026-04-25 04:53 | -36.43403 | 149.74715 | 4941 ft | 108 kts | 341° |
| 2026-04-25 04:53 | -36.42686 | 149.74455 | 4940 ft | 107 kts | 341° |
| 2026-04-25 04:54 | -36.41970 | 149.74195 | 4940 ft | 107 kts | 342° |
| 2026-04-25 04:54 | -36.41260 | 149.73938 | 4932 ft | 105 kts | 341° |
| 2026-04-25 04:54 | -36.40559 | 149.73684 | 4932 ft | 105 kts | 341° |
| 2026-04-25 04:54 | -36.39854 | 149.73428 | 4926 ft | 105 kts | 341° |
| 2026-04-25 04:55 | -36.39155 | 149.73174 | 4926 ft | 105 kts | 341° |
| 2026-04-25 04:55 | -36.38452 | 149.72920 | 4932 ft | 106 kts | 340° |
| 2026-04-25 04:55 | -36.37747 | 149.72665 | 4933 ft | 106 kts | 341° |
| 2026-04-25 04:55 | -36.37044 | 149.72410 | 4934 ft | 105 kts | 342° |
| 2026-04-25 04:56 | -36.36342 | 149.72155 | 4931 ft | 105 kts | 342° |
| 2026-04-25 04:56 | -36.35638 | 149.71901 | 4936 ft | 105 kts | 342° |
| 2026-04-25 04:56 | -36.34934 | 149.71646 | 4935 ft | 105 kts | 341° |
| 2026-04-25 04:56 | -36.34232 | 149.71392 | 4938 ft | 105 kts | 341° |
| 2026-04-25 04:57 | -36.33525 | 149.71137 | 4940 ft | 107 kts | 342° |
| 2026-04-25 04:57 | -36.32814 | 149.70881 | 4941 ft | 105 kts | 341° |
| 2026-04-25 04:57 | -36.32156 | 149.70643 | 5051 ft | 98 kts | 340° |
| 2026-04-25 04:57 | -36.31501 | 149.70405 | 5079 ft | 99 kts | 340° |
| 2026-04-25 04:58 | -36.30843 | 149.70167 | 5107 ft | 98 kts | 341° |
| 2026-04-25 04:58 | -36.30185 | 149.69929 | 5126 ft | 99 kts | 341° |
| 2026-04-25 04:58 | -36.29529 | 149.69688 | 5121 ft | 98 kts | 340° |
| 2026-04-25 04:58 | -36.28878 | 149.69458 | 5128 ft | 97 kts | 340° |
| 2026-04-25 04:59 | -36.28228 | 149.69216 | 5148 ft | 98 kts | 342° |
| 2026-04-25 04:59 | -36.27574 | 149.68987 | 5152 ft | 98 kts | 340° |
| 2026-04-25 04:59 | -36.26917 | 149.68748 | 5174 ft | 99 kts | 341° |
| 2026-04-25 04:59 | -36.26260 | 149.68512 | 5215 ft | 98 kts | 341° |
| 2026-04-25 05:00 | -36.25604 | 149.68273 | 5245 ft | 99 kts | 340° |
| 2026-04-25 05:00 | -36.24945 | 149.68038 | 5271 ft | 99 kts | 341° |
| 2026-04-25 05:00 | -36.24285 | 149.67799 | 5314 ft | 99 kts | 340° |
| 2026-04-25 05:00 | -36.23629 | 149.67562 | 5358 ft | 98 kts | 341° |
| 2026-04-25 05:01 | -36.22975 | 149.67326 | 5414 ft | 98 kts | 341° |
| 2026-04-25 05:01 | -36.22318 | 149.67090 | 5449 ft | 98 kts | 341° |
| 2026-04-25 05:01 | -36.21658 | 149.66851 | 5479 ft | 99 kts | 341° |
| 2026-04-25 05:01 | -36.20996 | 149.66611 | 5482 ft | 99 kts | 341° |
| 2026-04-25 05:02 | -36.20333 | 149.66376 | 5494 ft | 99 kts | 342° |
| 2026-04-25 05:02 | -36.19677 | 149.66137 | 5530 ft | 98 kts | 341° |
| 2026-04-25 05:02 | -36.19019 | 149.65905 | 5572 ft | 99 kts | 342° |
| 2026-04-25 05:02 | -36.18360 | 149.65661 | 5601 ft | 99 kts | 342° |
| 2026-04-25 05:03 | -36.17699 | 149.65425 | 5635 ft | 99 kts | 340° |
| 2026-04-25 05:03 | -36.17036 | 149.65186 | 5650 ft | 100 kts | 340° |
| 2026-04-25 05:03 | -36.16378 | 149.64948 | 5677 ft | 100 kts | 342° |
| 2026-04-25 05:03 | -36.15704 | 149.64705 | 5688 ft | 99 kts | 341° |
| 2026-04-25 05:04 | -36.15054 | 149.64476 | 5690 ft | 98 kts | 341° |
| 2026-04-25 05:04 | -36.14395 | 149.64237 | 5667 ft | 99 kts | 342° |
| 2026-04-25 05:04 | -36.13740 | 149.63999 | 5658 ft | 99 kts | 342° |
| 2026-04-25 05:04 | -36.13075 | 149.63762 | 5680 ft | 99 kts | 342° |
| 2026-04-25 05:05 | -36.12411 | 149.63522 | 5700 ft | 100 kts | 341° |
| 2026-04-25 05:05 | -36.11750 | 149.63285 | 5752 ft | 99 kts | 342° |
| 2026-04-25 05:05 | -36.11086 | 149.63045 | 5748 ft | 99 kts | 342° |
| 2026-04-25 05:05 | -36.10424 | 149.62808 | 5750 ft | 99 kts | 342° |
| 2026-04-25 05:06 | -36.09761 | 149.62569 | 5781 ft | 99 kts | 341° |
| 2026-04-25 05:06 | -36.09103 | 149.62333 | 5820 ft | 99 kts | 341° |
| 2026-04-25 05:06 | -36.08439 | 149.62095 | 5855 ft | 99 kts | 342° |
| 2026-04-25 05:06 | -36.07776 | 149.61857 | 5868 ft | 100 kts | 342° |
| 2026-04-25 05:07 | -36.07110 | 149.61618 | 5882 ft | 100 kts | 342° |
| 2026-04-25 05:07 | -36.06448 | 149.61378 | 5903 ft | 97 kts | 342° |
| 2026-04-25 05:07 | -36.05815 | 149.61148 | 5929 ft | 95 kts | 341° |
| 2026-04-25 05:07 | -36.05180 | 149.60924 | 5945 ft | 95 kts | 341° |
| 2026-04-25 05:08 | -36.04527 | 149.60690 | 5959 ft | 99 kts | 342° |
| 2026-04-25 05:08 | -36.03853 | 149.60449 | 5950 ft | 101 kts | 340° |
| 2026-04-25 05:08 | -36.03174 | 149.60204 | 5949 ft | 102 kts | 342° |
| 2026-04-25 05:08 | -36.02488 | 149.59959 | 5931 ft | 100 kts | 343° |
| 2026-04-25 05:09 | -36.01833 | 149.59726 | 5948 ft | 98 kts | 341° |
| 2026-04-25 05:09 | -36.01181 | 149.59489 | 5938 ft | 96 kts | 341° |
| 2026-04-25 05:09 | -36.00565 | 149.59257 | 5944 ft | 90 kts | 344° |
| 2026-04-25 05:09 | -35.99966 | 149.59055 | 5945 ft | 90 kts | 341° |
| 2026-04-25 05:10 | -35.99352 | 149.58834 | 5949 ft | 93 kts | 343° |
| 2026-04-25 05:10 | -35.98722 | 149.58610 | 5952 ft | 95 kts | 342° |
| 2026-04-25 05:10 | -35.98074 | 149.58376 | 5959 ft | 99 kts | 342° |
| 2026-04-25 05:10 | -35.97405 | 149.58136 | 5953 ft | 100 kts | 342° |
| 2026-04-25 05:11 | -35.96740 | 149.57899 | 5948 ft | 99 kts | 342° |
| 2026-04-25 05:11 | -35.96080 | 149.57662 | 5955 ft | 98 kts | 342° |
| 2026-04-25 05:11 | -35.95413 | 149.57424 | 5958 ft | 101 kts | 342° |
| 2026-04-25 05:12 | -35.94041 | 149.56932 | 5947 ft | 102 kts | 342° |
| 2026-04-25 05:12 | -35.93358 | 149.56687 | 5946 ft | 101 kts | 342° |
| 2026-04-25 05:12 | -35.92689 | 149.56449 | 5941 ft | 99 kts | 342° |
| 2026-04-25 05:12 | -35.92023 | 149.56210 | 5942 ft | 99 kts | 343° |
| 2026-04-25 05:13 | -35.91361 | 149.55974 | 5949 ft | 99 kts | 343° |
| 2026-04-25 05:13 | -35.90686 | 149.55732 | 5947 ft | 102 kts | 343° |
| 2026-04-25 05:13 | -35.90011 | 149.55490 | 5953 ft | 103 kts | 339° |
| 2026-04-25 05:13 | -35.89320 | 149.55243 | 5957 ft | 104 kts | 342° |
| 2026-04-25 05:14 | -35.88612 | 149.54993 | 5949 ft | 107 kts | 342° |
| 2026-04-25 05:14 | -35.87907 | 149.54739 | 5948 ft | 105 kts | 342° |
| 2026-04-25 05:14 | -35.87205 | 149.54489 | 5953 ft | 104 kts | 342° |
| 2026-04-25 05:15 | -35.85833 | 149.53998 | 5945 ft | 102 kts | 342° |
| 2026-04-25 05:15 | -35.85151 | 149.53754 | 5941 ft | 103 kts | 342° |
| 2026-04-25 05:15 | -35.84471 | 149.53514 | 5946 ft | 100 kts | 342° |
| 2026-04-25 05:15 | -35.83802 | 149.53276 | 5949 ft | 100 kts | 341° |
| 2026-04-25 05:16 | -35.83130 | 149.53032 | 5948 ft | 101 kts | 343° |
| 2026-04-25 05:16 | -35.82463 | 149.52794 | 5946 ft | 100 kts | 342° |
| 2026-04-25 05:16 | -35.81797 | 149.52557 | 5948 ft | 100 kts | 340° |
| 2026-04-25 05:16 | -35.81131 | 149.52319 | 5950 ft | 99 kts | 341° |
| 2026-04-25 05:17 | -35.80464 | 149.52080 | 5949 ft | 101 kts | 341° |
| 2026-04-25 05:17 | -35.79790 | 149.51841 | 5951 ft | 100 kts | 342° |
| 2026-04-25 05:17 | -35.79109 | 149.51596 | 5954 ft | 103 kts | 343° |
| 2026-04-25 05:17 | -35.78418 | 149.51352 | 5960 ft | 103 kts | 341° |
| 2026-04-25 05:18 | -35.77723 | 149.51106 | 5955 ft | 105 kts | 341° |
| 2026-04-25 05:18 | -35.77021 | 149.50859 | 5968 ft | 108 kts | 342° |
| 2026-04-25 05:18 | -35.76276 | 149.50590 | 5956 ft | 113 kts | 341° |
| 2026-04-25 05:18 | -35.75519 | 149.50319 | 5951 ft | 113 kts | 342° |
| 2026-04-25 05:19 | -35.74788 | 149.50058 | 5942 ft | 107 kts | 341° |
| 2026-04-25 05:19 | -35.74093 | 149.49811 | 5947 ft | 103 kts | 342° |
| 2026-04-25 05:19 | -35.73402 | 149.49565 | 5940 ft | 105 kts | 342° |
| 2026-04-25 05:19 | -35.72710 | 149.49318 | 5946 ft | 103 kts | 341° |
| 2026-04-25 05:20 | -35.72016 | 149.49072 | 5949 ft | 106 kts | 341° |
| 2026-04-25 05:20 | -35.71324 | 149.48826 | 5957 ft | 105 kts | 341° |
| 2026-04-25 05:20 | -35.70606 | 149.48572 | 5959 ft | 105 kts | 342° |
| 2026-04-25 05:20 | -35.69893 | 149.48321 | 5964 ft | 108 kts | 343° |
| 2026-04-25 05:21 | -35.69169 | 149.48063 | 5967 ft | 110 kts | 341° |
| 2026-04-25 05:21 | -35.68446 | 149.47806 | 5956 ft | 108 kts | 342° |
| 2026-04-25 05:21 | -35.67732 | 149.47551 | 5952 ft | 105 kts | 342° |
| 2026-04-25 05:21 | -35.67033 | 149.47304 | 5952 ft | 104 kts | 341° |
| 2026-04-25 05:22 | -35.66332 | 149.47057 | 5955 ft | 105 kts | 340° |
| 2026-04-25 05:22 | -35.65637 | 149.46805 | 5947 ft | 103 kts | 341° |
| 2026-04-25 05:22 | -35.64957 | 149.46564 | 5946 ft | 101 kts | 340° |
| 2026-04-25 05:22 | -35.64299 | 149.46329 | 5953 ft | 98 kts | 341° |
| 2026-04-25 05:23 | -35.63645 | 149.46099 | 5959 ft | 99 kts | 341° |
| 2026-04-25 05:23 | -35.62966 | 149.45854 | 5966 ft | 105 kts | 341° |
| 2026-04-25 05:23 | -35.62256 | 149.45604 | 5969 ft | 108 kts | 342° |
| 2026-04-25 05:23 | -35.61532 | 149.45347 | 5971 ft | 108 kts | 341° |
| 2026-04-25 05:24 | -35.60807 | 149.45092 | 5964 ft | 107 kts | 341° |
| 2026-04-25 05:24 | -35.60097 | 149.44841 | 5958 ft | 105 kts | 342° |
| 2026-04-25 05:24 | -35.59399 | 149.44592 | 5958 ft | 104 kts | 341° |
| 2026-04-25 05:24 | -35.58781 | 149.44160 | 5962 ft | 101 kts | 320° |
| 2026-04-25 05:25 | -35.58205 | 149.43638 | 5961 ft | 103 kts | 322° |
| 2026-04-25 05:25 | -35.57626 | 149.43113 | 5963 ft | 103 kts | 321° |
| 2026-04-25 05:25 | -35.57055 | 149.42593 | 5956 ft | 101 kts | 322° |
| 2026-04-25 05:25 | -35.56499 | 149.42088 | 5963 ft | 98 kts | 322° |
| 2026-04-25 05:26 | -35.55943 | 149.41583 | 5965 ft | 100 kts | 322° |
| 2026-04-25 05:26 | -35.55377 | 149.41069 | 5974 ft | 103 kts | 322° |
| 2026-04-25 05:26 | -35.54796 | 149.40544 | 5967 ft | 102 kts | 322° |
| 2026-04-25 05:26 | -35.54224 | 149.40024 | 5967 ft | 102 kts | 322° |
| 2026-04-25 05:27 | -35.53648 | 149.39500 | 5969 ft | 104 kts | 322° |
| 2026-04-25 05:27 | -35.53067 | 149.38974 | 5972 ft | 104 kts | 323° |
| 2026-04-25 05:27 | -35.52487 | 149.38442 | 5977 ft | 104 kts | 322° |
| 2026-04-25 05:27 | -35.51897 | 149.37914 | 5972 ft | 105 kts | 322° |
| 2026-04-25 05:28 | -35.51308 | 149.37379 | 5978 ft | 107 kts | 321° |
| 2026-04-25 05:28 | -35.50711 | 149.36836 | 5975 ft | 106 kts | 321° |
| 2026-04-25 05:28 | -35.50122 | 149.36304 | 5972 ft | 104 kts | 322° |
| 2026-04-25 05:28 | -35.49542 | 149.35776 | 5973 ft | 103 kts | 322° |
| 2026-04-25 05:29 | -35.48964 | 149.35252 | 5971 ft | 103 kts | 321° |
| 2026-04-25 05:29 | -35.48395 | 149.34741 | 5907 ft | 100 kts | 322° |
| 2026-04-25 05:29 | -35.47822 | 149.34221 | 5761 ft | 103 kts | 322° |
| 2026-04-25 05:29 | -35.47252 | 149.33704 | 5684 ft | 102 kts | 323° |
| 2026-04-25 05:30 | -35.46666 | 149.33200 | 5549 ft | 103 kts | 325° |
| 2026-04-25 05:30 | -35.46040 | 149.32797 | 5485 ft | 104 kts | 343° |
| 2026-04-25 05:30 | -35.45337 | 149.32595 | 5431 ft | 103 kts | 342° |
| 2026-04-25 05:30 | -35.44645 | 149.32394 | 5262 ft | 103 kts | 342° |
| 2026-04-25 05:31 | -35.43947 | 149.32186 | 5080 ft | 104 kts | 343° |
| 2026-04-25 05:31 | -35.43273 | 149.31931 | 4915 ft | 99 kts | 337° |
| 2026-04-25 05:31 | -35.42633 | 149.31643 | 4778 ft | 98 kts | 338° |
| 2026-04-25 05:31 | -35.41987 | 149.31361 | 4619 ft | 99 kts | 334° |
| 2026-04-25 05:32 | -35.41373 | 149.30993 | 4458 ft | 99 kts | 331° |
| 2026-04-25 05:32 | -35.40756 | 149.30613 | 4280 ft | 99 kts | 329° |
| 2026-04-25 05:32 | -35.40154 | 149.30256 | 4146 ft | 95 kts | 331° |
| 2026-04-25 05:32 | -35.39565 | 149.29886 | 3999 ft | 95 kts | 330° |
| 2026-04-25 05:33 | -35.38974 | 149.29529 | 3855 ft | 95 kts | 329° |
| 2026-04-25 05:33 | -35.38392 | 149.29152 | 3778 ft | 97 kts | 330° |
| 2026-04-25 05:33 | -35.37825 | 149.28710 | 3676 ft | 96 kts | 324° |
| 2026-04-25 05:33 | -35.37276 | 149.28267 | 3610 ft | 96 kts | 323° |
| 2026-04-25 05:34 | -35.36707 | 149.27830 | 3542 ft | 95 kts | 326° |
| 2026-04-25 05:34 | -35.36173 | 149.27391 | 3499 ft | 94 kts | 316° |
| 2026-04-25 05:34 | -35.35717 | 149.26799 | 3487 ft | 95 kts | 309° |
| 2026-04-25 05:34 | -35.35266 | 149.26188 | 3413 ft | 98 kts | 311° |
| 2026-04-25 05:35 | -35.34835 | 149.25565 | 3340 ft | 94 kts | 310° |
| 2026-04-25 05:35 | -35.34417 | 149.24957 | 3245 ft | 95 kts | 309° |
| 2026-04-25 05:35 | -35.33997 | 149.24324 | 3094 ft | 94 kts | 308° |
| 2026-04-25 05:35 | -35.33611 | 149.23688 | 2917 ft | 92 kts | 309° |
| 2026-04-25 05:36 | -35.33383 | 149.23272 | 2817 ft | 85 kts | 303° |
| 2026-04-25 05:36 | -35.33017 | 149.22600 | 2771 ft | 94 kts | 307° |
| 2026-04-25 05:36 | -35.32509 | 149.21793 | 2660 ft | 88 kts | 315° |
| 2026-04-25 05:36 | -35.32224 | 149.21424 | 2574 ft | 88 kts | 317° |
| 2026-04-25 05:37 | -35.31780 | 149.20898 | 2465 ft | 87 kts | 319° |
| 2026-04-25 05:37 | -35.31361 | 149.20360 | 2167 ft | 88 kts | 313° |
| 2026-04-25 05:37 | -35.30957 | 149.19807 | 1921 ft | 78 kts | 311° |
| 2026-04-25 05:37 | -35.30658 | 149.19363 | 1878 ft | 58 kts | 311° |
| 2026-04-25 05:38 | -35.30446 | 149.19068 | 1877 ft | 32 kts | 312° |
| 2026-04-25 05:38 | -35.30410 | 149.18953 | 1877 ft | 11 kts | 248° |
| 2026-04-25 05:38 | -35.30427 | 149.18903 | 1877 ft | 0 kts | 246° |
| 2026-04-25 05:39 | -35.30447 | 149.18845 | 1875 ft | 12 kts | 246° |
| 2026-04-25 05:39 | -35.30416 | 149.18764 | 1874 ft | 10 kts | 306° |
| 2026-04-25 05:40 | -35.30397 | 149.18735 | 1873 ft | 0 kts | 308° |